Time;durP1;ratioP1;P1;durP2;ratioP2;P2;SDS_P1;SDS_P2;PMS_P1;PMS_P2;Temp;Humidity;BMP_temperature;BMP_pressure;BME280_temperature;BME280_humidity;BME280_pressure;Samples;Min_cycle;Max_cycle;Signal;HPM_P1;HPM_P2
2021/07/19 00:01:56;;;;;;;18.25;13.07;;;;;;;25.10;73.84;99215.13;3600034;40;20036;-71
2021/07/19 00:04:24;;;;;;;16.75;12.88;;;;;;;25.12;73.30;99215.78;3591489;40;20302;-72
2021/07/19 00:06:49;;;;;;;17.02;12.15;;;;;;;25.40;70.72;99213.84;3600016;40;20036;-69
2021/07/19 00:09:15;;;;;;;14.93;11.55;;;;;;;25.19;71.46;99214.22;3589753;40;20037;-70
2021/07/19 00:11:41;;;;;;;16.10;12.38;;;;;;;25.44;70.49;99212.56;3599698;40;20032;-71
2021/07/19 00:14:09;;;;;;;14.65;12.05;;;;;;;25.49;69.73;99215.53;3600182;40;20029;-70
2021/07/19 00:16:34;;;;;;;17.48;11.88;;;;;;;25.38;71.13;99213.97;3599738;40;20510;-70
2021/07/19 00:19:02;;;;;;;16.73;12.10;;;;;;;25.65;70.03;99219.00;3599817;40;20033;-70
2021/07/19 00:25:05;;;;;;;17.65;11.80;;;;;;;25.61;69.40;99216.91;3598486;40;20504;-70
2021/07/19 00:27:35;;;;;;;15.45;12.32;;;;;;;25.55;69.85;99223.53;3577075;40;20412;-70
2021/07/19 00:30:04;;;;;;;16.52;12.15;;;;;;;25.56;70.59;99239.97;3589204;40;20056;-70
2021/07/19 00:32:30;;;;;;;13.38;11.57;;;;;;;25.48;70.58;99238.16;3589549;40;20088;-70
2021/07/19 00:34:56;;;;;;;14.98;11.88;;;;;;;25.41;70.96;99238.94;3589962;40;20049;-69
2021/07/19 00:37:21;;;;;;;14.68;11.65;;;;;;;25.60;70.60;99225.66;3580458;40;20029;-70
2021/07/19 00:39:47;;;;;;;15.55;11.35;;;;;;;25.46;70.54;99221.88;3589665;40;20035;-70
2021/07/19 00:42:12;;;;;;;17.13;11.55;;;;;;;25.35;71.10;99205.69;3589355;40;20029;-70
2021/07/19 00:44:38;;;;;;;15.38;11.18;;;;;;;25.42;70.86;99215.34;3589900;40;20040;-70
2021/07/19 00:47:07;;;;;;;17.67;11.60;;;;;;;25.48;70.74;99222.53;3580595;40;20384;-70
2021/07/19 00:49:34;;;;;;;17.05;11.98;;;;;;;25.54;72.29;99213.28;3589080;40;20406;-70
2021/07/19 00:52:00;;;;;;;18.67;11.95;;;;;;;25.17;74.77;99212.72;3590117;40;20045;-71
2021/07/19 00:54:30;;;;;;;19.08;12.38;;;;;;;25.12;73.95;99218.38;3568570;40;20057;-69
2021/07/19 00:57:05;;;;;;;14.35;12.60;;;;;;;25.28;73.32;99215.88;3568423;40;20550;-70
2021/07/19 00:59:34;;;;;;;14.70;11.85;;;;;;;25.28;73.54;99215.88;3568719;40;20303;-70
2021/07/19 01:02:05;;;;;;;16.38;12.77;;;;;;;25.21;72.86;99208.84;3568127;40;20030;-69
2021/07/19 01:04:32;;;;;;;;;;;;;;;25.15;74.09;99209.47;3570018;40;20042;-70
2021/07/19 01:07:01;;;;;;;14.57;12.07;;;;;;;25.17;73.41;99207.53;3568424;40;19937;-69
2021/07/19 01:09:30;;;;;;;18.35;12.70;;;;;;;25.24;72.96;99203.31;3559893;40;20030;-71
2021/07/19 01:12:01;;;;;;;16.35;12.65;;;;;;;25.38;71.19;99206.16;3568600;40;20041;-71
2021/07/19 01:14:27;;;;;;;18.30;13.80;;;;;;;25.03;73.40;99221.09;3569398;40;20044;-70
2021/07/19 01:16:53;;;;;;;16.55;12.40;;;;;;;24.99;73.04;99210.19;3567954;40;20038;-74
2021/07/19 01:19:22;;;;;;;20.75;13.50;;;;;;;25.04;72.94;99207.94;3568629;40;20033;-70
2021/07/19 01:22:07;;;;;;;18.02;13.35;;;;;;;25.01;73.19;99197.84;3567442;40;20026;-73
2021/07/19 01:30:19;;;;;;;16.08;12.98;;;;;;;24.75;74.50;99204.81;3591915;40;20630;-70
2021/07/19 01:32:48;;;;;;;20.83;13.23;;;;;;;24.93;73.71;99200.38;3588656;40;20087;-70
2021/07/19 01:35:14;;;;;;;17.77;13.05;;;;;;;24.99;74.31;99207.59;3598248;40;20445;-71
2021/07/19 01:37:44;;;;;;;17.80;13.25;;;;;;;24.60;76.03;99207.09;3598455;40;20079;-69
2021/07/19 01:40:16;;;;;;;14.95;12.57;;;;;;;24.85;75.42;99198.56;3598090;40;20299;-72
2021/07/19 01:42:44;;;;;;;19.40;13.30;;;;;;;24.96;74.18;99204.47;3598640;40;20091;-70
2021/07/19 01:45:10;;;;;;;19.65;13.07;;;;;;;25.19;73.62;99202.97;3598500;40;20119;-71
2021/07/19 01:47:38;;;;;;;14.60;13.07;;;;;;;24.86;74.55;99207.16;3598814;40;20075;-70
2021/07/19 01:50:07;;;;;;;18.17;12.35;;;;;;;25.08;74.94;99219.66;3597944;40;20032;-71
2021/07/19 01:52:34;;;;;;;20.67;12.82;;;;;;;25.06;74.52;99207.78;3598568;40;20390;-69
2021/07/19 01:55:00;;;;;;;17.52;12.43;;;;;;;25.02;74.93;99211.69;3589502;40;20511;-70
2021/07/19 01:57:27;;;;;;;18.25;12.45;;;;;;;24.91;75.01;99215.34;3598129;40;20036;-69
2021/07/19 01:59:58;;;;;;;16.02;12.23;;;;;;;24.98;74.93;99212.94;3597855;40;20041;-69
2021/07/19 02:02:25;;;;;;;15.93;12.50;;;;;;;24.80;75.42;99213.78;3597836;40;20470;-69
2021/07/19 02:04:51;;;;;;;16.80;12.88;;;;;;;24.94;75.42;99223.66;3598051;40;20126;-69
2021/07/19 02:07:20;;;;;;;16.02;12.13;;;;;;;24.90;74.99;99224.91;3588278;40;20040;-70
2021/07/19 02:09:49;;;;;;;16.27;12.32;;;;;;;24.91;75.94;99226.56;3595772;40;20029;-70
2021/07/19 02:12:15;;;;;;;15.15;11.82;;;;;;;25.01;75.16;99213.44;3597390;40;20074;-70
2021/07/19 02:14:44;;;;;;;15.93;12.15;;;;;;;24.73;77.21;99209.34;3589266;40;20033;-71
2021/07/19 02:17:12;;;;;;;16.35;13.13;;;;;;;24.50;78.87;99197.78;3596629;40;20028;-70
2021/07/19 02:19:40;;;;;;;18.98;12.77;;;;;;;24.75;77.55;99203.03;3589606;40;20025;-70
2021/07/19 02:22:07;;;;;;;15.55;12.70;;;;;;;24.56;77.57;99200.56;3577557;40;20148;-71
2021/07/19 02:24:34;;;;;;;17.90;13.13;;;;;;;24.74;76.34;99200.59;3576552;40;20049;-71
2021/07/19 02:27:00;;;;;;;14.52;12.57;;;;;;;24.81;76.04;99205.03;3577614;40;20512;-70
2021/07/19 02:29:27;;;;;;;18.27;13.18;;;;;;;24.67;76.87;99210.75;3577798;40;20037;-69
2021/07/19 02:32:24;;;;;;;17.08;13.07;;;;;;;24.81;76.14;99212.00;3590306;40;20040;-70
2021/07/19 02:34:51;;;;;;;22.08;12.60;;;;;;;24.65;77.46;99197.06;3598104;40;20068;-72
2021/07/19 02:37:17;;;;;;;15.63;12.90;;;;;;;24.35;78.92;99201.84;3598466;40;20036;-69
2021/07/19 02:39:43;;;;;;;16.08;12.90;;;;;;;24.73;79.01;99214.56;3599631;40;20032;-70
2021/07/19 02:42:10;;;;;;;17.27;13.55;;;;;;;24.26;80.95;99215.75;3589332;40;20032;-70
2021/07/19 02:44:37;;;;;;;16.63;13.18;;;;;;;24.29;80.63;99224.06;3598364;40;20032;-70
2021/07/19 02:47:04;;;;;;;17.67;13.38;;;;;;;24.22;80.46;99215.22;3597932;40;20047;-71
2021/07/19 02:49:32;;;;;;;17.05;13.10;;;;;;;24.76;78.21;99225.47;3597885;40;20039;-70
2021/07/19 02:52:01;;;;;;;16.20;12.52;;;;;;;24.59;78.99;99231.47;3566595;40;20355;-70
2021/07/19 02:54:28;;;;;;;15.02;13.07;;;;;;;24.81;78.61;99230.22;3566930;40;20070;-71
2021/07/19 02:56:54;;;;;;;14.45;12.95;;;;;;;24.89;78.72;99228.50;3547161;40;20037;-70
2021/07/19 02:59:22;;;;;;;15.85;13.32;;;;;;;24.41;80.67;99225.47;3537981;40;20123;-71
2021/07/19 03:01:52;;;;;;;16.83;13.75;;;;;;;24.40;80.67;99223.84;3538395;40;20043;-68
2021/07/19 03:04:18;;;;;;;19.27;13.40;;;;;;;24.44;81.20;99219.16;3539448;40;20067;-70
2021/07/19 03:06:46;;;;;;;18.13;13.77;;;;;;;24.42;80.90;99229.72;3538846;40;20031;-70
2021/07/19 03:09:16;;;;;;;16.80;13.52;;;;;;;24.55;80.01;99234.50;3539151;40;20035;-69
2021/07/19 03:11:50;;;;;;;16.05;13.23;;;;;;;24.71;79.35;99237.25;3539098;40;20087;-71
2021/07/19 03:14:22;;;;;;;19.63;13.48;;;;;;;24.79;79.73;99243.38;3539081;40;20039;-69
2021/07/19 03:16:51;;;;;;;15.55;13.30;;;;;;;25.06;78.30;99237.22;3539401;40;20030;-69
2021/07/19 03:19:20;;;;;;;19.83;13.95;;;;;;;24.91;78.62;99246.56;3539699;40;20532;-69
2021/07/19 03:21:48;;;;;;;15.85;13.20;;;;;;;24.84;79.01;99245.50;3539736;40;20440;-68
2021/07/19 03:24:16;;;;;;;16.02;14.32;;;;;;;24.50;80.34;99244.56;3569147;40;20030;-70
2021/07/19 03:26:44;;;;;;;21.00;13.65;;;;;;;24.44;80.12;99245.16;3567667;40;20030;-70
2021/07/19 03:29:11;;;;;;;20.63;13.43;;;;;;;24.81;79.17;99248.41;3548179;40;20309;-69
2021/07/19 03:31:40;;;;;;;15.95;13.80;;;;;;;24.83;78.35;99249.91;3557240;40;20101;-70
2021/07/19 03:37:08;;;;;;;24.40;14.25;;;;;;;24.88;78.61;99263.25;3595246;40;20067;-70
2021/07/19 03:39:36;;;;;;;19.38;14.25;;;;;;;24.97;78.27;99260.72;3585376;39;20053;-70
2021/07/19 03:42:04;;;;;;;17.58;14.23;;;;;;;24.82;79.76;99261.28;3597783;40;20025;-70
2021/07/19 03:44:29;;;;;;;18.90;14.30;;;;;;;24.66;81.10;99266.31;3598485;40;20040;-69
2021/07/19 03:46:56;;;;;;;17.60;14.50;;;;;;;24.82;80.79;99263.03;3598899;40;20311;-70
2021/07/19 03:49:24;;;;;;;17.88;14.90;;;;;;;24.86;79.98;99266.97;3598721;40;20098;-70
2021/07/19 03:51:49;;;;;;;19.48;15.00;;;;;;;24.99;80.12;99277.81;3598670;40;20040;-69
2021/07/19 03:56:46;;;;;;;19.15;15.23;;;;;;;24.99;80.79;99277.00;3589000;40;20061;-72
2021/07/19 03:59:18;;;;;;;23.17;15.52;;;;;;;24.86;81.46;99282.59;3590852;40;20041;-69
2021/07/19 04:01:47;;;;;;;17.88;15.85;;;;;;;25.08;80.28;99292.53;3591602;39;20048;-71
2021/07/19 04:04:18;;;;;;;20.75;16.17;;;;;;;24.86;82.53;99300.78;3592807;40;20582;-72
2021/07/19 04:06:45;;;;;;;;;;;;;;;25.35;79.83;99295.00;3590533;40;20329;-69
2021/07/19 04:11:40;;;;;;;25.30;17.05;;;;;;;24.69;82.61;99302.44;3585473;40;20066;-68
2021/07/19 04:14:10;;;;;;;22.30;16.17;;;;;;;24.84;82.18;99298.34;3586759;40;20040;-69
2021/07/19 04:16:35;;;;;;;17.40;15.15;;;;;;;25.00;82.13;99291.66;3594582;40;20033;-71
2021/07/19 04:19:02;;;;;;;22.27;15.82;;;;;;;24.46;83.79;99300.41;3595135;40;20320;-70
2021/07/19 04:21:31;;;;;;;22.52;15.43;;;;;;;24.78;82.75;99305.97;3586870;40;20028;-70
2021/07/19 04:23:58;;;;;;;20.05;16.52;;;;;;;25.22;80.92;99296.34;3595951;40;20045;-69
2021/07/19 04:26:24;;;;;;;27.88;16.52;;;;;;;24.91;82.21;99299.41;3595343;40;20516;-69
2021/07/19 04:28:50;;;;;;;20.23;17.02;;;;;;;25.18;82.11;99302.84;3592287;40;20045;-69
2021/07/19 04:31:16;;;;;;;22.17;17.20;;;;;;;25.08;82.73;99302.13;3591777;40;20044;-70
2021/07/19 04:33:46;;;;;;;23.80;17.15;;;;;;;25.40;81.07;99298.00;3592641;40;20400;-69
2021/07/19 04:36:12;;;;;;;23.88;16.95;;;;;;;25.72;79.73;99300.78;3590015;40;20036;-71
2021/07/19 04:38:38;;;;;;;21.08;17.55;;;;;;;25.51;81.70;99302.13;3589129;40;20045;-70
2021/07/19 04:41:04;;;;;;;23.38;18.83;;;;;;;25.45;81.49;99306.13;3592526;40;20029;-70
2021/07/19 04:43:30;;;;;;;22.23;16.95;;;;;;;25.68;81.39;99307.25;3585044;40;20442;-68
2021/07/19 04:45:56;;;;;;;27.00;17.20;;;;;;;25.42;81.56;99306.47;3595345;40;20033;-69
2021/07/19 04:48:22;;;;;;;51.97;17.60;;;;;;;25.50;83.30;99297.88;3593581;40;20048;-70
2021/07/19 04:50:49;;;;;;;22.42;17.45;;;;;;;25.67;81.20;99308.22;3593377;40;20039;-70
2021/07/19 04:53:16;;;;;;;18.95;16.45;;;;;;;25.39;81.13;99311.13;3581780;40;20037;-70
2021/07/19 04:55:47;;;;;;;19.63;16.45;;;;;;;25.45;80.88;99313.94;3583030;40;20083;-71
2021/07/19 04:58:18;;;;;;;20.02;17.25;;;;;;;25.12;83.45;99309.47;3592742;40;20312;-68
2021/07/19 05:00:50;;;;;;;25.67;17.77;;;;;;;25.13;83.43;99320.69;3591598;40;20060;-72
2021/07/19 05:03:18;;;;;;;21.73;17.30;;;;;;;25.19;83.45;99312.28;3591318;40;20099;-68
2021/07/19 05:05:46;;;;;;;26.23;16.15;;;;;;;25.59;80.83;99316.00;3592751;40;20147;-69
2021/07/19 05:08:17;;;;;;;25.35;17.20;;;;;;;25.43;82.65;99325.50;3592483;40;20471;-72
2021/07/19 05:10:48;;;;;;;22.92;16.67;;;;;;;25.41;82.76;99325.66;3591642;40;20118;-69
2021/07/19 05:13:14;;;;;;;21.65;17.30;;;;;;;25.33;82.51;99328.19;3590623;40;20057;-71
2021/07/19 05:15:41;;;;;;;19.73;16.48;;;;;;;25.70;80.32;99338.34;3581983;40;20029;-69
2021/07/19 05:18:09;;;;;;;28.13;17.15;;;;;;;25.58;81.92;99334.38;3583401;40;20087;-69
2021/07/19 05:20:36;;;;;;;22.05;16.80;;;;;;;25.57;81.43;99337.97;3581815;40;20029;-69
2021/07/19 05:23:04;;;;;;;27.58;16.10;;;;;;;26.19;79.33;99334.22;3581383;40;20044;-70
2021/07/19 05:25:31;;;;;;;26.42;17.05;;;;;;;26.75;76.84;99339.59;3582680;40;20040;-71
2021/07/19 05:28:23;;;;;;;18.85;16.08;;;;;;;26.47;77.86;99333.00;3581805;40;20040;-70
2021/07/19 05:30:50;;;;;;;28.58;16.90;;;;;;;26.62;76.08;99334.03;3561645;40;20034;-71
2021/07/19 05:33:17;;;;;;;25.85;16.20;;;;;;;26.57;76.61;99333.66;3561928;40;20038;-70
2021/07/19 05:35:43;;;;;;;21.48;15.43;;;;;;;26.63;76.44;99338.25;3575583;40;20077;-70
2021/07/19 05:38:10;;;;;;;17.98;14.23;;;;;;;26.24;76.11;99348.44;3584421;40;20122;-69
2021/07/19 05:40:36;;;;;;;17.15;14.70;;;;;;;26.51;75.28;99335.13;3581873;40;20057;-70
2021/07/19 05:43:03;;;;;;;22.92;14.68;;;;;;;27.12;74.02;99341.72;3582302;40;20106;-70
2021/07/19 05:45:29;;;;;;;18.38;14.20;;;;;;;27.48;71.46;99342.22;3582586;40;20331;-70
2021/07/19 05:47:57;;;;;;;17.48;14.82;;;;;;;27.62;69.94;99354.59;3583318;40;20037;-68
2021/07/19 05:50:23;;;;;;;19.13;14.75;;;;;;;27.53;70.12;99348.59;3582130;40;20029;-70
2021/07/19 05:52:49;;;;;;;16.45;13.93;;;;;;;27.76;70.22;99346.91;3582710;40;20383;-68
2021/07/19 05:55:15;;;;;;;19.13;15.23;;;;;;;28.02;69.48;99342.28;3583678;40;20096;-68
2021/07/19 05:57:41;;;;;;;19.05;15.40;;;;;;;27.56;71.19;99356.09;3583584;40;20069;-70
2021/07/19 06:00:13;;;;;;;20.42;16.42;;;;;;;27.87;70.48;99348.34;3582106;40;20388;-70
2021/07/19 06:02:41;;;;;;;20.20;16.30;;;;;;;28.19;69.13;99343.84;3584042;40;20068;-69
2021/07/19 06:05:09;;;;;;;19.42;15.57;;;;;;;28.11;69.92;99348.28;3583924;40;20488;-70
2021/07/19 06:07:34;;;;;;;18.50;14.68;;;;;;;28.11;69.38;99350.88;3583540;40;20048;-70
2021/07/19 06:10:03;;;;;;;18.25;13.77;;;;;;;28.33;69.22;99338.88;3582803;40;20049;-73
2021/07/19 06:12:29;;;;;;;19.55;14.75;;;;;;;28.49;68.18;99339.59;3583935;40;20350;-68
2021/07/19 06:14:55;;;;;;;18.38;13.88;;;;;;;28.86;66.24;99347.56;3590688;40;20496;-70
2021/07/19 06:17:21;;;;;;;17.27;13.48;;;;;;;28.90;64.75;99348.81;3592447;40;20116;-70
2021/07/19 06:19:49;;;;;;;17.77;13.07;;;;;;;28.47;66.90;99343.34;3592878;40;20089;-69
2021/07/19 06:22:16;;;;;;;15.48;12.65;;;;;;;28.60;67.23;99347.09;3583807;40;20390;-71
2021/07/19 06:24:43;;;;;;;20.95;12.88;;;;;;;28.75;66.85;99340.13;3581911;40;20436;-69
2021/07/19 06:27:09;;;;;;;20.13;13.48;;;;;;;29.29;66.19;99338.25;3573933;40;20044;-70
2021/07/19 06:29:35;;;;;;;22.83;14.88;;;;;;;29.02;67.55;99336.13;3582172;40;20116;-70
2021/07/19 06:32:02;;;;;;;19.88;13.13;;;;;;;28.89;66.58;99336.75;3581350;40;20099;-69
2021/07/19 06:34:28;;;;;;;14.68;12.77;;;;;;;28.44;67.25;99341.09;3581196;40;20049;-70
2021/07/19 06:36:54;;;;;;;18.65;13.68;;;;;;;28.89;67.62;99341.97;3573459;40;20161;-70
2021/07/19 06:39:19;;;;;;;15.85;13.13;;;;;;;28.77;67.84;99340.75;3583016;40;20045;-70
2021/07/19 06:41:45;;;;;;;18.35;12.95;;;;;;;29.11;67.69;99335.09;3573259;40;20041;-70
2021/07/19 06:44:10;;;;;;;17.67;13.40;;;;;;;29.35;65.67;99340.16;3583226;40;20072;-71
2021/07/19 06:46:36;;;;;;;18.73;13.23;;;;;;;29.59;64.10;99334.69;3573956;40;20037;-69
2021/07/19 06:49:01;;;;;;;18.63;12.93;;;;;;;29.26;65.94;99332.56;3583312;40;20036;-68
2021/07/19 06:51:27;;;;;;;13.70;12.40;;;;;;;29.36;64.99;99330.47;3582609;40;20041;-70
2021/07/19 06:53:52;;;;;;;15.75;12.30;;;;;;;30.61;61.59;99326.69;3573242;40;20087;-69
2021/07/19 06:59:08;;;;;;;16.88;12.55;;;;;;;29.66;61.77;99332.13;3590674;40;20040;-70
2021/07/19 07:01:34;;;;;;;14.05;11.38;;;;;;;29.30;63.63;99336.41;3591237;40;20041;-68
2021/07/19 07:03:59;;;;;;;14.10;11.23;;;;;;;29.74;62.36;99338.13;3592305;40;20118;-70
2021/07/19 07:06:25;;;;;;;16.15;11.65;;;;;;;30.11;61.09;99337.19;3592553;40;20044;-70
2021/07/19 07:08:54;;;;;;;16.45;12.15;;;;;;;29.54;62.58;99339.63;3591236;40;20047;-69
2021/07/19 07:11:21;;;;;;;14.25;12.18;;;;;;;29.56;63.75;99340.25;3593459;40;20028;-70
2021/07/19 07:13:46;;;;;;;16.02;12.32;;;;;;;30.03;63.02;99329.41;3592611;40;20304;-71
2021/07/19 07:16:12;;;;;;;20.77;12.15;;;;;;;30.36;61.48;99332.47;3594119;40;20110;-69
2021/07/19 07:18:37;;;;;;;15.23;12.35;;;;;;;29.46;62.68;99336.25;3593714;40;20037;-70
2021/07/19 07:21:03;;;;;;;14.18;11.88;;;;;;;30.36;60.27;99333.31;3594024;40;20036;-75
2021/07/19 07:23:28;;;;;;;19.88;13.15;;;;;;;30.67;59.60;99330.38;3584084;40;20040;-70
2021/07/19 07:25:54;;;;;;;17.50;13.75;;;;;;;31.33;59.41;99327.38;3593713;40;20029;-70
2021/07/19 07:28:19;;;;;;;14.35;12.30;;;;;;;31.50;58.84;99330.53;3593190;40;20445;-69
2021/07/19 07:30:44;;;;;;;19.23;13.35;;;;;;;30.88;58.52;99324.34;3593472;40;20391;-71
2021/07/19 07:33:10;;;;;;;17.60;12.30;;;;;;;30.65;60.95;99329.75;3582950;40;20032;-69
2021/07/19 07:35:40;;;;;;;14.70;11.55;;;;;;;30.85;59.32;99329.97;3593010;40;20035;-70
2021/07/19 07:38:05;;;;;;;14.80;12.07;;;;;;;31.36;57.76;99326.16;3594305;40;20076;-69
2021/07/19 07:40:31;;;;;;;18.38;11.40;;;;;;;30.61;59.37;99324.06;3593867;40;20037;-70
2021/07/19 07:42:56;;;;;;;15.65;11.60;;;;;;;30.95;58.10;99327.84;3584898;40;20048;-69
2021/07/19 07:45:22;;;;;;;14.95;11.45;;;;;;;31.80;55.39;99333.72;3594560;40;20036;-69
2021/07/19 07:47:47;;;;;;;17.42;11.73;;;;;;;31.20;58.07;99336.97;3593094;40;20097;-70
2021/07/19 07:50:13;;;;;;;17.70;12.13;;;;;;;31.57;57.21;99334.03;3584655;40;20032;-71
2021/07/19 07:52:40;;;;;;;17.77;11.68;;;;;;;31.41;57.77;99329.06;3593976;40;20108;-71
2021/07/19 07:55:06;;;;;;;16.70;11.57;;;;;;;31.94;55.88;99328.38;3593561;40;20029;-70
2021/07/19 07:57:32;;;;;;;16.27;11.35;;;;;;;31.78;56.21;99328.69;3593798;40;20029;-69
2021/07/19 08:00:23;;;;;;;16.48;12.07;;;;;;;31.54;57.40;99329.94;3586669;40;20051;-71
2021/07/19 08:02:49;;;;;;;16.80;13.18;;;;;;;31.52;56.26;99331.13;3603611;40;20056;-70
2021/07/19 08:05:15;;;;;;;15.38;11.25;;;;;;;30.92;57.01;99326.41;3604603;40;20040;-69
2021/07/19 08:07:41;;;;;;;12.70;11.07;;;;;;;31.92;55.26;99333.03;3604545;40;20105;-70
2021/07/19 08:10:08;;;;;;;13.70;11.60;;;;;;;31.57;56.06;99336.66;3604078;40;20435;-70
2021/07/19 08:12:34;;;;;;;15.93;11.30;;;;;;;31.47;55.63;99325.66;3593048;40;20040;-69
2021/07/19 08:15:03;;;;;;;12.63;11.38;;;;;;;31.89;54.35;99333.38;3602919;40;20043;-70
2021/07/19 08:17:29;;;;;;;17.88;11.52;;;;;;;32.70;53.76;99324.59;3591972;40;20099;-70
2021/07/19 08:19:56;;;;;;;22.90;12.52;;;;;;;32.03;54.46;99331.66;3602440;40;20306;-70
2021/07/19 08:22:23;;;;;;;15.20;10.15;;;;;;;31.69;54.20;99334.28;3593054;40;20067;-70
2021/07/19 08:24:49;;;;;;;14.40;11.00;;;;;;;31.53;53.86;99328.34;3603100;40;20047;-70
2021/07/19 08:27:15;;;;;;;13.65;11.05;;;;;;;31.98;53.45;99334.06;3594282;40;20040;-70
2021/07/19 08:29:40;;;;;;;12.48;9.95;;;;;;;31.03;54.06;99322.47;3603834;40;20038;-70
2021/07/19 08:32:06;;;;;;;19.38;10.38;;;;;;;30.86;55.86;99324.56;3605047;40;20028;-68
2021/07/19 08:34:33;;;;;;;16.80;10.45;;;;;;;31.27;54.30;99332.56;3604912;40;20410;-70
2021/07/19 08:36:59;;;;;;;14.30;10.68;;;;;;;31.29;54.28;99331.38;3605078;40;20036;-71
2021/07/19 08:39:24;;;;;;;13.38;10.18;;;;;;;31.21;54.15;99322.81;3604492;40;20040;-69
2021/07/19 08:41:50;;;;;;;17.63;10.00;;;;;;;32.04;52.19;99320.13;3604094;40;20540;-70
2021/07/19 08:44:16;;;;;;;12.43;10.45;;;;;;;31.71;52.24;99325.22;3603220;40;20032;-69
2021/07/19 08:46:41;;;;;;;14.35;9.98;;;;;;;31.20;53.83;99321.19;3594217;40;20276;-71
2021/07/19 08:49:08;;;;;;;11.88;10.45;;;;;;;31.85;52.12;99318.19;3603091;40;20042;-72
2021/07/19 08:51:41;;;;;;;13.43;10.52;;;;;;;31.68;53.69;99316.88;3593043;40;20417;-70
2021/07/19 08:54:10;;;;;;;11.98;10.73;;;;;;;31.89;53.69;99311.53;3603086;40;20040;-71
2021/07/19 08:56:36;;;;;;;14.13;10.68;;;;;;;32.47;52.00;99310.97;3602642;40;20064;-70
2021/07/19 08:59:02;;;;;;;19.55;12.63;;;;;;;32.81;51.71;99307.38;3593106;39;20389;-72
2021/07/19 09:01:30;;;;;;;20.27;12.90;;;;;;;32.90;52.31;99311.44;3602187;39;20738;-70
2021/07/19 09:03:55;;;;;;;16.15;11.02;;;;;;;33.07;48.78;99308.22;3593742;40;20342;-70
2021/07/19 09:06:21;;;;;;;18.30;10.98;;;;;;;33.55;49.96;99310.63;3603238;40;20032;-71
2021/07/19 09:08:51;;;;;;;15.60;11.70;;;;;;;32.82;51.10;99309.84;3602707;40;20043;-71
2021/07/19 09:11:18;;;;;;;15.32;11.98;;;;;;;32.76;52.55;99299.28;3603508;40;20036;-70
2021/07/19 09:14:05;;;;;;;14.65;11.20;;;;;;;32.08;53.20;99305.56;3604403;40;20028;-69
2021/07/19 09:16:42;;;;;;;15.18;11.68;;;;;;;32.32;52.92;99305.03;3594727;40;20362;-70
2021/07/19 09:19:19;;;;;;;15.40;12.00;;;;;;;31.72;53.73;99311.03;3605317;40;20043;-70
2021/07/19 09:21:47;;;;;;;18.33;11.40;;;;;;;32.13;53.56;99311.84;3594494;40;20344;-68
2021/07/19 09:24:15;;;;;;;15.38;11.80;;;;;;;32.67;52.61;99300.47;3595842;40;20048;-71
2021/07/19 09:26:42;;;;;;;15.95;11.43;;;;;;;32.31;53.69;99312.13;3605067;40;20032;-70
2021/07/19 09:29:11;;;;;;;11.65;10.45;;;;;;;32.85;50.37;99305.97;3595566;40;20024;-70
2021/07/19 09:31:43;;;;;;;16.85;11.80;;;;;;;33.03;52.62;99299.09;3604956;40;20039;-69
2021/07/19 09:34:14;;;;;;;14.40;11.25;;;;;;;32.08;54.07;99303.75;3595289;40;20048;-71
2021/07/19 09:37:01;;;;;;;14.55;10.77;;;;;;;33.25;50.56;99302.34;3604302;40;20040;-69
2021/07/19 09:39:29;;;;;;;13.15;10.88;;;;;;;32.14;53.58;99304.78;3603366;40;20040;-70
2021/07/19 09:42:14;;;;;;;15.90;11.25;;;;;;;33.21;51.14;99293.22;3603375;40;20046;-69
2021/07/19 09:44:41;;;;;;;14.35;11.30;;;;;;;33.63;51.19;99294.59;3603108;40;20314;-71
2021/07/19 09:47:09;;;;;;;13.18;11.80;;;;;;;33.88;50.18;99290.22;3603173;40;20044;-71
2021/07/19 09:49:36;;;;;;;15.52;11.70;;;;;;;34.28;48.88;99291.69;3603727;40;20040;-71
2021/07/19 09:52:04;;;;;;;13.80;11.27;;;;;;;33.01;51.99;99284.50;3603173;40;20032;-69
2021/07/19 09:54:36;;;;;;;13.10;11.50;;;;;;;34.04;50.27;99280.03;3593768;40;20078;-70
2021/07/19 09:57:02;;;;;;;15.75;11.48;;;;;;;33.47;50.93;99287.09;3603349;40;20032;-70
2021/07/19 09:59:28;;;;;;;14.10;11.65;;;;;;;34.22;50.03;99278.53;3603412;40;20048;-71
2021/07/19 10:01:53;;;;;;;14.00;11.23;;;;;;;33.88;50.19;99280.47;3602825;39;20402;-71
2021/07/19 10:04:20;;;;;;;16.17;11.70;;;;;;;33.71;50.52;99281.97;3593726;39;20071;-71
2021/07/19 10:06:48;;;;;;;18.77;12.30;;;;;;;33.99;50.61;99276.41;3593364;40;20078;-69
2021/07/19 10:09:15;;;;;;;13.10;11.70;;;;;;;33.69;50.61;99286.66;3593580;40;20044;-71
2021/07/19 10:11:45;;;;;;;15.10;11.38;;;;;;;33.52;50.65;99280.19;3584029;40;20037;-71
2021/07/19 10:14:11;;;;;;;16.92;11.23;;;;;;;34.45;48.78;99271.66;3594377;40;20036;-69
2021/07/19 10:16:39;;;;;;;15.20;11.65;;;;;;;35.60;46.90;99271.94;3595223;40;20042;-70
2021/07/19 10:19:05;;;;;;;13.27;10.80;;;;;;;35.20;46.30;99273.34;3594681;40;20029;-69
2021/07/19 10:21:33;;;;;;;17.00;11.70;;;;;;;34.02;48.79;99258.31;3594486;40;20037;-70
2021/07/19 10:23:58;;;;;;;12.25;10.80;;;;;;;35.69;46.41;99264.50;3595142;40;20041;-71
2021/07/19 10:26:24;;;;;;;17.85;11.10;;;;;;;35.16;45.37;99252.84;3593943;40;20039;-70
2021/07/19 10:28:50;;;;;;;16.08;10.43;;;;;;;34.87;44.85;99257.75;3593137;40;20086;-69
2021/07/19 10:31:16;;;;;;;15.18;9.55;;;;;;;35.31;44.55;99251.47;3593005;40;20043;-70
2021/07/19 10:33:44;;;;;;;13.45;9.98;;;;;;;35.10;43.96;99253.72;3593110;40;20114;-69
2021/07/19 10:36:12;;;;;;;14.70;9.77;;;;;;;34.40;44.94;99242.47;3583343;40;20053;-69
2021/07/19 10:38:39;;;;;;;12.60;9.52;;;;;;;35.22;44.51;99247.47;3592496;40;20035;-70
2021/07/19 10:41:06;;;;;;;13.45;9.75;;;;;;;35.69;43.40;99246.81;3582859;40;20037;-69
2021/07/19 10:43:31;;;;;;;11.45;9.45;;;;;;;35.93;42.96;99241.63;3592994;40;20037;-69
2021/07/19 10:46:10;;;;;;;10.20;9.20;;;;;;;34.77;43.93;99238.94;3592867;40;20029;-68
2021/07/19 10:48:36;;;;;;;13.23;8.27;;;;;;;35.29;41.91;99232.38;3593395;40;20091;-71
2021/07/19 10:51:15;;;;;;;11.30;8.77;;;;;;;35.50;40.26;99237.22;3584314;40;20055;-70
2021/07/19 10:53:40;;;;;;;12.15;8.30;;;;;;;35.56;40.14;99235.53;3593715;40;20037;-71
2021/07/19 10:56:09;;;;;;;14.70;7.70;;;;;;;35.64;39.96;99236.06;3584589;40;20311;-69
2021/07/19 10:58:37;;;;;;;10.23;8.45;;;;;;;35.56;40.08;99225.78;3595328;40;20037;-70
2021/07/19 11:01:03;;;;;;;12.48;8.35;;;;;;;34.95;41.39;99230.25;3585665;40;20033;-69
2021/07/19 11:03:39;;;;;;;13.50;8.68;;;;;;;35.25;41.77;99235.66;3596262;40;20041;-72
2021/07/19 11:06:04;;;;;;;12.30;8.02;;;;;;;34.82;40.94;99233.00;3593272;39;20417;-70
2021/07/19 11:08:30;;;;;;;12.98;8.98;;;;;;;35.08;41.48;99230.16;3604909;39;20129;-71
2021/07/19 11:10:57;;;;;;;13.55;8.38;;;;;;;35.53;40.30;99233.34;3605677;39;20044;-70
2021/07/19 11:13:23;;;;;;;10.93;8.80;;;;;;;35.85;39.52;99229.50;3596128;40;20027;-71
2021/07/19 11:15:51;;;;;;;9.75;8.32;;;;;;;36.04;39.30;99225.78;3594531;40;20421;-69
2021/07/19 11:18:19;;;;;;;12.05;8.85;;;;;;;35.16;40.67;99226.41;3593760;40;20040;-71
2021/07/19 11:20:47;;;;;;;13.52;8.75;;;;;;;34.74;40.57;99228.00;3603089;40;20047;-69
2021/07/19 11:25:43;;;;;;;15.45;8.15;;;;;;;35.92;39.10;99224.09;3603141;40;20133;-70
2021/07/19 11:28:20;;;;;;;11.57;8.10;;;;;;;35.56;39.74;99227.59;3601860;40;20044;-71
2021/07/19 11:31:27;;;;;;;13.77;9.23;;;;;;;35.59;39.28;99220.06;3603312;40;20036;-71
2021/07/19 11:34:04;;;;;;;23.13;10.30;;;;;;;35.55;38.69;99215.41;3588570;40;20318;-70
2021/07/19 11:36:44;;;;;;;13.02;8.25;;;;;;;35.58;37.97;99213.13;3603800;40;20040;-70
2021/07/19 11:39:16;;;;;;;12.57;8.43;;;;;;;36.65;37.25;99204.28;3604005;40;20043;-70
2021/07/19 11:41:42;;;;;;;11.50;8.40;;;;;;;35.13;39.96;99217.06;3603824;40;20129;-70
2021/07/19 11:44:14;;;;;;;12.45;8.10;;;;;;;34.65;39.49;99205.50;3603752;40;20043;-70
2021/07/19 11:46:40;;;;;;;9.15;7.25;;;;;;;35.56;38.14;99207.25;3604155;40;20043;-70